Time;durP1;ratioP1;P1;durP2;ratioP2;P2;SDS_P1;SDS_P2;PMS_P1;PMS_P2;Temp;Humidity;BMP_temperature;BMP_pressure;BME280_temperature;BME280_humidity;BME280_pressure;Samples;Min_cycle;Max_cycle;Signal;HPM_P1;HPM_P2
2023/06/04 00:01:37;;;;;;;0.40;0.40;;;;;;;;;;5094002;28;20235;-86
2023/06/04 00:04:03;;;;;;;0.50;0.50;;;;;;;;;;5095140;28;20727;-86
2023/06/04 00:06:29;;;;;;;0.40;0.40;;;;;;;;;;5094228;28;20158;-87
2023/06/04 00:08:55;;;;;;;0.40;0.40;;;;;;;;;;5094659;28;20178;-88
2023/06/04 00:11:22;;;;;;;0.40;0.40;;;;;;;;;;5094386;28;20202;-87
2023/06/04 00:13:48;;;;;;;0.50;0.50;;;;;;;;;;5098688;28;20315;-86
2023/06/04 00:16:14;;;;;;;0.47;0.47;;;;;;;;;;5100217;28;20177;-87
2023/06/04 00:18:40;;;;;;;0.40;0.40;;;;;;;;;;5110597;28;20403;-89
2023/06/04 00:21:06;;;;;;;0.47;0.47;;;;;;;;;;5116475;28;20189;-88
2023/06/04 00:23:32;;;;;;;0.40;0.40;;;;;;;;;;5102238;28;20182;-87
2023/06/04 00:25:58;;;;;;;0.50;0.50;;;;;;;;;;5093638;28;20181;-86
2023/06/04 00:28:25;;;;;;;0.50;0.50;;;;;;;;;;5094267;28;20550;-86
2023/06/04 00:30:51;;;;;;;0.53;0.53;;;;;;;;;;5094167;28;20609;-87
2023/06/04 00:33:17;;;;;;;0.50;0.50;;;;;;;;;;5093945;28;20234;-86
2023/06/04 00:35:43;;;;;;;0.50;0.50;;;;;;;;;;5093677;28;20184;-86
2023/06/04 00:38:09;;;;;;;0.60;0.60;;;;;;;;;;5094444;28;20182;-86
2023/06/04 00:40:35;;;;;;;0.40;0.40;;;;;;;;;;5093219;28;20225;-86
2023/06/04 00:43:01;;;;;;;0.50;0.50;;;;;;;;;;5093793;28;20193;-86
2023/06/04 00:45:30;;;;;;;0.57;0.57;;;;;;;;;;5093309;28;20177;-86
2023/06/04 00:47:57;;;;;;;0.50;0.50;;;;;;;;;;5093535;28;20177;-87
2023/06/04 00:50:23;;;;;;;0.50;0.50;;;;;;;;;;5094564;28;20201;-86
2023/06/04 00:52:50;;;;;;;0.33;0.33;;;;;;;;;;5093669;28;20226;-87
2023/06/04 00:55:19;;;;;;;0.40;0.40;;;;;;;;;;5093625;28;20178;-87
2023/06/04 00:57:45;;;;;;;0.40;0.40;;;;;;;;;;5094028;28;20166;-86
2023/06/04 01:00:12;;;;;;;0.60;0.60;;;;;;;;;;5093096;28;20283;-86
2023/06/04 01:02:39;;;;;;;0.43;0.43;;;;;;;;;;5096790;28;20258;-86
2023/06/04 01:05:20;;;;;;;0.50;0.50;;;;;;;;;;5100017;28;20178;-86
2023/06/04 01:07:46;;;;;;;0.40;0.40;;;;;;;;;;5098805;28;20189;-86
2023/06/04 01:10:13;;;;;;;0.40;0.40;;;;;;;;;;5098940;28;20196;-86
2023/06/04 01:12:40;;;;;;;0.50;0.50;;;;;;;;;;5101049;28;20188;-86
2023/06/04 01:15:06;;;;;;;0.60;0.60;;;;;;;;;;5100426;28;20174;-85
2023/06/04 01:17:37;;;;;;;0.60;0.60;;;;;;;;;;5108764;28;20189;-87
2023/06/04 01:20:04;;;;;;;0.40;0.40;;;;;;;;;;5115300;28;20210;-86
2023/06/04 01:22:31;;;;;;;0.57;0.57;;;;;;;;;;5116018;28;20174;-86
2023/06/04 01:25:01;;;;;;;0.40;0.40;;;;;;;;;;5115871;28;20166;-86
2023/06/04 01:27:27;;;;;;;0.50;0.50;;;;;;;;;;5114805;28;20182;-85
2023/06/04 01:29:56;;;;;;;0.50;0.50;;;;;;;;;;5114706;28;20205;-85
2023/06/04 01:32:22;;;;;;;0.57;0.57;;;;;;;;;;5100502;28;20185;-86
2023/06/04 01:34:48;;;;;;;0.40;0.40;;;;;;;;;;5106526;28;20173;-86
2023/06/04 01:37:16;;;;;;;0.50;0.50;;;;;;;;;;5116484;28;20178;-86
2023/06/04 01:39:42;;;;;;;0.50;0.50;;;;;;;;;;5110153;28;20218;-86
2023/06/04 01:42:08;;;;;;;0.50;0.50;;;;;;;;;;5104654;28;20197;-86
2023/06/04 01:44:34;;;;;;;0.50;0.50;;;;;;;;;;5114172;28;20183;-85
2023/06/04 01:47:00;;;;;;;0.50;0.50;;;;;;;;;;5120161;28;20185;-86
2023/06/04 01:49:27;;;;;;;0.50;0.50;;;;;;;;;;5119491;28;20229;-86
2023/06/04 01:51:53;;;;;;;0.40;0.40;;;;;;;;;;5108118;28;20541;-86
2023/06/04 01:54:19;;;;;;;0.50;0.50;;;;;;;;;;5102488;28;20178;-86
2023/06/04 01:56:46;;;;;;;0.53;0.53;;;;;;;;;;5101908;28;20177;-86
2023/06/04 01:59:12;;;;;;;0.47;0.47;;;;;;;;;;5102063;28;20205;-86
2023/06/04 02:01:38;;;;;;;0.53;0.53;;;;;;;;;;5101711;28;20212;-86
2023/06/04 02:04:04;;;;;;;0.50;0.50;;;;;;;;;;5102937;28;20192;-86
2023/06/04 02:06:31;;;;;;;0.47;0.47;;;;;;;;;;5102204;28;20626;-86
2023/06/04 02:08:57;;;;;;;0.60;0.60;;;;;;;;;;5113510;28;20249;-85
2023/06/04 02:11:23;;;;;;;0.57;0.57;;;;;;;;;;5118315;28;20185;-85
2023/06/04 02:13:49;;;;;;;0.53;0.53;;;;;;;;;;5114898;28;20200;-86
2023/06/04 02:16:15;;;;;;;0.40;0.40;;;;;;;;;;5101006;28;20181;-86
2023/06/04 02:18:41;;;;;;;0.60;0.60;;;;;;;;;;5082775;28;20189;-85
2023/06/04 02:21:07;;;;;;;0.63;0.63;;;;;;;;;;5100407;28;20202;-85
2023/06/04 02:23:33;;;;;;;0.60;0.60;;;;;;;;;;5100666;28;20223;-86
2023/06/04 02:25:58;;;;;;;0.50;0.50;;;;;;;;;;5100052;28;20193;-86
2023/06/04 02:28:25;;;;;;;0.40;0.40;;;;;;;;;;5100890;28;20174;-86
2023/06/04 02:30:51;;;;;;;0.60;0.60;;;;;;;;;;5100972;28;20197;-86
2023/06/04 02:33:17;;;;;;;0.47;0.47;;;;;;;;;;5101075;28;20541;-85
2023/06/04 02:35:43;;;;;;;0.67;0.67;;;;;;;;;;5102271;28;20177;-86
2023/06/04 02:38:09;;;;;;;0.60;0.60;;;;;;;;;;5101467;28;20641;-86
2023/06/04 02:40:36;;;;;;;0.50;0.50;;;;;;;;;;5100287;28;20605;-86
2023/06/04 02:43:02;;;;;;;0.40;0.40;;;;;;;;;;5099959;28;20181;-86
2023/06/04 02:45:28;;;;;;;0.50;0.50;;;;;;;;;;5100258;28;20174;-86
2023/06/04 02:47:54;;;;;;;0.50;0.50;;;;;;;;;;5101317;28;20173;-86
2023/06/04 02:50:20;;;;;;;0.50;0.50;;;;;;;;;;5098797;28;20234;-86
2023/06/04 02:52:46;;;;;;;0.50;0.50;;;;;;;;;;5099939;28;20195;-86
2023/06/04 02:55:13;;;;;;;0.47;0.47;;;;;;;;;;5100177;28;20178;-86
2023/06/04 02:57:42;;;;;;;0.70;0.70;;;;;;;;;;5100450;28;20255;-86
2023/06/04 03:00:11;;;;;;;0.50;0.50;;;;;;;;;;5099545;28;20748;-86
2023/06/04 03:02:38;;;;;;;0.50;0.50;;;;;;;;;;5098856;28;20205;-86
2023/06/04 03:05:05;;;;;;;0.50;0.50;;;;;;;;;;5099662;28;20178;-86
2023/06/04 03:07:32;;;;;;;0.60;0.60;;;;;;;;;;5100400;28;20571;-86
2023/06/04 03:09:58;;;;;;;0.67;0.67;;;;;;;;;;5099314;28;20297;-86
2023/06/04 03:12:24;;;;;;;0.40;0.40;;;;;;;;;;5099458;28;20193;-86
2023/06/04 03:14:50;;;;;;;0.50;0.50;;;;;;;;;;5098939;28;20182;-86
2023/06/04 03:17:16;;;;;;;0.60;0.60;;;;;;;;;;5098406;28;20173;-85
2023/06/04 03:19:42;;;;;;;0.50;0.50;;;;;;;;;;5101484;28;20229;-86
2023/06/04 03:22:10;;;;;;;0.50;0.50;;;;;;;;;;5117158;28;20185;-85
2023/06/04 03:24:37;;;;;;;0.60;0.60;;;;;;;;;;5116737;28;20178;-85
2023/06/04 03:27:04;;;;;;;0.50;0.50;;;;;;;;;;5098886;28;20177;-85
2023/06/04 03:29:30;;;;;;;0.57;0.57;;;;;;;;;;5098870;28;20181;-85
2023/06/04 03:31:57;;;;;;;0.50;0.50;;;;;;;;;;5098212;28;20178;-86
2023/06/04 03:34:24;;;;;;;0.50;0.50;;;;;;;;;;5098662;28;20379;-85
2023/06/04 03:36:51;;;;;;;0.50;0.50;;;;;;;;;;5098038;28;20543;-86
2023/06/04 03:39:17;;;;;;;0.50;0.50;;;;;;;;;;5097893;28;20217;-86
2023/06/04 03:41:43;;;;;;;0.60;0.60;;;;;;;;;;5098605;28;20178;-85
2023/06/04 03:44:09;;;;;;;0.60;0.60;;;;;;;;;;5097862;28;20240;-85
2023/06/04 03:46:35;;;;;;;0.60;0.60;;;;;;;;;;5097809;28;20181;-86
2023/06/04 03:49:02;;;;;;;0.50;0.50;;;;;;;;;;5098038;28;20191;-86
2023/06/04 03:51:28;;;;;;;0.50;0.50;;;;;;;;;;5097274;28;20253;-85
2023/06/04 03:53:55;;;;;;;0.50;0.50;;;;;;;;;;5097319;28;20197;-85
2023/06/04 03:56:21;;;;;;;0.73;0.73;;;;;;;;;;5097009;28;20538;-86
2023/06/04 03:58:47;;;;;;;0.50;0.50;;;;;;;;;;5097588;28;20204;-85
2023/06/04 04:01:13;;;;;;;0.63;0.63;;;;;;;;;;5097114;28;20596;-86
2023/06/04 04:03:39;;;;;;;0.50;0.50;;;;;;;;;;5097018;28;20194;-86
2023/06/04 04:06:06;;;;;;;0.60;0.60;;;;;;;;;;5097478;28;20184;-86
2023/06/04 04:08:34;;;;;;;0.50;0.50;;;;;;;;;;5096880;28;20180;-86
2023/06/04 04:11:00;;;;;;;0.60;0.60;;;;;;;;;;5096050;28;20198;-85
2023/06/04 04:13:26;;;;;;;0.60;0.60;;;;;;;;;;5097268;28;20178;-86
2023/06/04 04:15:52;;;;;;;0.50;0.50;;;;;;;;;;5096905;28;20178;-85
2023/06/04 04:18:19;;;;;;;0.53;0.53;;;;;;;;;;5097919;28;20178;-85
2023/06/04 04:20:46;;;;;;;0.50;0.50;;;;;;;;;;5096677;28;20214;-85
2023/06/04 04:23:12;;;;;;;0.50;0.50;;;;;;;;;;5096797;28;20184;-87
2023/06/04 04:25:38;;;;;;;0.50;0.50;;;;;;;;;;5097163;28;20182;-86
2023/06/04 04:28:07;;;;;;;0.60;0.60;;;;;;;;;;5097367;28;20185;-85
2023/06/04 04:30:36;;;;;;;0.50;0.50;;;;;;;;;;5094789;28;20202;-85
2023/06/04 04:33:05;;;;;;;0.60;0.60;;;;;;;;;;5095280;28;20177;-85
2023/06/04 04:35:32;;;;;;;0.50;0.50;;;;;;;;;;5095783;28;20204;-86
2023/06/04 04:37:58;;;;;;;0.70;0.70;;;;;;;;;;5095943;28;20428;-86
2023/06/04 04:40:24;;;;;;;0.60;0.60;;;;;;;;;;5094118;28;20622;-86
2023/06/04 04:42:50;;;;;;;0.50;0.50;;;;;;;;;;5094591;28;20252;-86
2023/06/04 04:45:18;;;;;;;0.70;0.70;;;;;;;;;;5102795;28;20175;-88
2023/06/04 04:47:44;;;;;;;0.50;0.50;;;;;;;;;;5117397;28;20158;-90
2023/06/04 04:50:10;;;;;;;0.50;0.50;;;;;;;;;;5116797;28;20197;-90
2023/06/04 04:52:36;;;;;;;0.50;0.50;;;;;;;;;;5117265;28;20184;-90
2023/06/04 04:55:02;;;;;;;0.40;0.40;;;;;;;;;;5117267;28;20158;-89
2023/06/04 04:57:28;;;;;;;0.47;0.47;;;;;;;;;;5100946;28;20170;-85
2023/06/04 04:59:54;;;;;;;0.40;0.40;;;;;;;;;;5110146;28;20240;-86
2023/06/04 05:02:20;;;;;;;0.50;0.50;;;;;;;;;;5105141;28;20645;-86
2023/06/04 05:04:46;;;;;;;0.40;0.40;;;;;;;;;;5099923;28;20181;-86
2023/06/04 05:07:12;;;;;;;0.47;0.47;;;;;;;;;;5096393;28;20173;-87
2023/06/04 05:09:38;;;;;;;0.50;0.50;;;;;;;;;;5092187;28;20201;-86
2023/06/04 05:12:05;;;;;;;0.57;0.57;;;;;;;;;;5092793;28;20170;-86
2023/06/04 05:14:31;;;;;;;0.30;0.30;;;;;;;;;;5093579;28;20656;-87
2023/06/04 05:16:57;;;;;;;0.43;0.43;;;;;;;;;;5097036;28;20535;-86
2023/06/04 05:19:23;;;;;;;0.40;0.40;;;;;;;;;;5096475;28;20221;-86
2023/06/04 05:21:50;;;;;;;0.40;0.40;;;;;;;;;;5096779;28;20178;-86
2023/06/04 05:24:16;;;;;;;0.50;0.50;;;;;;;;;;5096571;28;20238;-86
2023/06/04 05:26:43;;;;;;;0.50;0.50;;;;;;;;;;5098563;28;20548;-86
2023/06/04 05:29:09;;;;;;;0.40;0.40;;;;;;;;;;5098476;28;20797;-86
2023/06/04 05:31:36;;;;;;;0.40;0.40;;;;;;;;;;5098813;28;20197;-85
2023/06/04 05:34:04;;;;;;;0.50;0.50;;;;;;;;;;5101855;28;20231;-87
2023/06/04 05:36:32;;;;;;;0.50;0.50;;;;;;;;;;5100701;28;20237;-86
2023/06/04 05:38:59;;;;;;;0.40;0.40;;;;;;;;;;5084008;28;20273;-87
2023/06/04 05:41:25;;;;;;;0.50;0.50;;;;;;;;;;5117338;28;20233;-87
2023/06/04 05:43:51;;;;;;;0.30;0.30;;;;;;;;;;5118155;28;20192;-87
2023/06/04 05:46:17;;;;;;;0.40;0.40;;;;;;;;;;5107626;28;20186;-86
2023/06/04 05:48:43;;;;;;;0.40;0.40;;;;;;;;;;5082179;28;20547;-86
2023/06/04 05:51:09;;;;;;;0.57;0.57;;;;;;;;;;5098321;28;20194;-85
2023/06/04 05:53:35;;;;;;;0.40;0.40;;;;;;;;;;5097428;28;20173;-85
2023/06/04 05:56:01;;;;;;;0.40;0.40;;;;;;;;;;5097253;28;20174;-85
2023/06/04 05:58:27;;;;;;;0.30;0.30;;;;;;;;;;5097721;28;20334;-85
2023/06/04 06:00:53;;;;;;;0.40;0.40;;;;;;;;;;5098365;28;20213;-85
2023/06/04 06:03:20;;;;;;;0.40;0.40;;;;;;;;;;5098221;28;20185;-85
2023/06/04 06:05:46;;;;;;;0.30;0.30;;;;;;;;;;5099353;28;20298;-85
2023/06/04 06:08:12;;;;;;;0.40;0.40;;;;;;;;;;5098595;28;20185;-84
2023/06/04 06:10:47;;;;;;;0.50;0.50;;;;;;;;;;5097853;28;20573;-85
2023/06/04 06:13:13;;;;;;;0.30;0.30;;;;;;;;;;5099438;28;20184;-85
2023/06/04 06:15:39;;;;;;;0.30;0.30;;;;;;;;;;5097913;28;20184;-86
2023/06/04 06:18:05;;;;;;;0.40;0.40;;;;;;;;;;5100067;28;20178;-85
2023/06/04 06:20:32;;;;;;;0.40;0.40;;;;;;;;;;5099733;28;20237;-85
2023/06/04 06:22:58;;;;;;;0.40;0.40;;;;;;;;;;5081980;28;20208;-86
2023/06/04 06:25:24;;;;;;;0.50;0.50;;;;;;;;;;5097844;28;20194;-85
2023/06/04 06:27:51;;;;;;;0.43;0.43;;;;;;;;;;5099094;28;20200;-85
2023/06/04 06:30:18;;;;;;;0.50;0.50;;;;;;;;;;5099235;28;20200;-84
2023/06/04 06:32:45;;;;;;;0.40;0.40;;;;;;;;;;5109275;28;20190;-88
2023/06/04 06:35:11;;;;;;;0.40;0.40;;;;;;;;;;5118659;28;20185;-88
2023/06/04 06:37:41;;;;;;;0.30;0.30;;;;;;;;;;5108633;28;20185;-85
2023/06/04 06:40:08;;;;;;;0.30;0.30;;;;;;;;;;5098572;28;20734;-86
2023/06/04 06:42:34;;;;;;;0.40;0.40;;;;;;;;;;5098936;28;20170;-85
2023/06/04 06:45:00;;;;;;;0.40;0.40;;;;;;;;;;5098200;28;20269;-85
2023/06/04 06:47:26;;;;;;;0.30;0.30;;;;;;;;;;5099697;28;20617;-85
2023/06/04 06:49:52;;;;;;;0.30;0.30;;;;;;;;;;5097731;28;20342;-85
2023/06/04 06:52:19;;;;;;;0.27;0.27;;;;;;;;;;5098460;28;20558;-85
2023/06/04 06:54:45;;;;;;;0.47;0.47;;;;;;;;;;5098801;28;20520;-86
2023/06/04 06:57:11;;;;;;;0.33;0.33;;;;;;;;;;5081053;28;20234;-88
2023/06/04 06:59:37;;;;;;;0.40;0.40;;;;;;;;;;5089866;28;20225;-87
2023/06/04 07:02:04;;;;;;;0.30;0.30;;;;;;;;;;5085545;28;20189;-89
2023/06/04 07:04:30;;;;;;;0.37;0.37;;;;;;;;;;5097668;28;20238;-87
2023/06/04 07:06:56;;;;;;;0.40;0.40;;;;;;;;;;5097624;28;20186;-86
2023/06/04 07:09:22;;;;;;;0.37;0.37;;;;;;;;;;5097003;28;20171;-87
2023/06/04 07:11:48;;;;;;;0.40;0.40;;;;;;;;;;5097273;28;20179;-88
2023/06/04 07:14:14;;;;;;;0.30;0.30;;;;;;;;;;5096705;28;20519;-87
2023/06/04 07:16:40;;;;;;;0.37;0.37;;;;;;;;;;5096617;28;20175;-89
2023/06/04 07:19:06;;;;;;;0.30;0.30;;;;;;;;;;5095118;28;20656;-86
2023/06/04 07:21:32;;;;;;;0.30;0.30;;;;;;;;;;5089885;28;20201;-89
2023/06/04 07:23:59;;;;;;;0.30;0.30;;;;;;;;;;5080098;28;20170;-87
2023/06/04 07:26:26;;;;;;;0.37;0.37;;;;;;;;;;5076302;28;20234;-86
2023/06/04 07:28:52;;;;;;;0.30;0.30;;;;;;;;;;5075140;28;20193;-87
2023/06/04 07:31:18;;;;;;;0.40;0.40;;;;;;;;;;5075907;28;20198;-86
2023/06/04 07:33:45;;;;;;;0.40;0.40;;;;;;;;;;5074731;28;20595;-86
2023/06/04 07:36:12;;;;;;;0.30;0.30;;;;;;;;;;5077656;28;20668;-86
2023/06/04 07:38:38;;;;;;;0.30;0.30;;;;;;;;;;5076496;28;20174;-87
2023/06/04 07:41:05;;;;;;;0.30;0.30;;;;;;;;;;5075782;28;20228;-86
2023/06/04 07:43:31;;;;;;;0.30;0.30;;;;;;;;;;5075582;28;20228;-87
2023/06/04 07:45:56;;;;;;;0.40;0.40;;;;;;;;;;5074339;28;20186;-88
2023/06/04 07:48:30;;;;;;;0.33;0.33;;;;;;;;;;5074764;28;20669;-87
2023/06/04 07:50:56;;;;;;;0.30;0.30;;;;;;;;;;5092841;28;20191;-91
2023/06/04 07:53:22;;;;;;;0.30;0.30;;;;;;;;;;5096792;28;20194;-89
2023/06/04 07:55:48;;;;;;;0.20;0.20;;;;;;;;;;5083358;28;20197;-86
2023/06/04 07:58:14;;;;;;;0.20;0.20;;;;;;;;;;5085736;28;20171;-88
2023/06/04 08:00:40;;;;;;;0.30;0.30;;;;;;;;;;5096690;28;20210;-88
2023/06/04 08:03:06;;;;;;;0.20;0.20;;;;;;;;;;5097052;28;20220;-88
2023/06/04 08:05:33;;;;;;;0.23;0.23;;;;;;;;;;5097199;28;20163;-89
2023/06/04 08:08:00;;;;;;;0.30;0.30;;;;;;;;;;5097240;28;20397;-89
2023/06/04 08:10:25;;;;;;;0.30;0.30;;;;;;;;;;5096880;28;20187;-91
2023/06/04 08:12:51;;;;;;;0.30;0.30;;;;;;;;;;5097222;28;20185;-90
2023/06/04 08:15:17;;;;;;;0.30;0.30;;;;;;;;;;5074847;28;20710;-88
2023/06/04 08:17:43;;;;;;;0.30;0.30;;;;;;;;;;5075533;28;20175;-87
2023/06/04 08:20:10;;;;;;;0.30;0.30;;;;;;;;;;5056217;28;20244;-87
2023/06/04 08:22:36;;;;;;;0.40;0.40;;;;;;;;;;5074782;28;20174;-88
2023/06/04 08:25:03;;;;;;;0.40;0.40;;;;;;;;;;5073709;28;20178;-89
2023/06/04 08:27:29;;;;;;;0.30;0.30;;;;;;;;;;5074361;28;20320;-88
2023/06/04 08:29:55;;;;;;;0.40;0.40;;;;;;;;;;5073400;28;20209;-87
2023/06/04 08:32:22;;;;;;;0.30;0.30;;;;;;;;;;5074764;28;20178;-88
2023/06/04 08:34:48;;;;;;;0.40;0.40;;;;;;;;;;5094851;28;20174;-89
2023/06/04 08:37:13;;;;;;;0.50;0.50;;;;;;;;;;5095434;28;20201;-88
2023/06/04 08:39:40;;;;;;;0.40;0.40;;;;;;;;;;5083479;28;20218;-87
2023/06/04 08:42:15;;;;;;;0.40;0.40;;;;;;;;;;5075205;28;20179;-89
2023/06/04 08:44:42;;;;;;;0.40;0.40;;;;;;;;;;5073735;28;20170;-88
2023/06/04 08:47:08;;;;;;;0.40;0.40;;;;;;;;;;5073387;28;20178;-88
2023/06/04 08:49:41;;;;;;;0.30;0.30;;;;;;;;;;5074922;28;20194;-88
2023/06/04 08:52:07;;;;;;;0.33;0.33;;;;;;;;;;5077525;28;20265;-90
2023/06/04 08:54:33;;;;;;;0.40;0.40;;;;;;;;;;5077235;28;20182;-88
2023/06/04 08:57:01;;;;;;;0.40;0.40;;;;;;;;;;5078015;28;20213;-88
2023/06/04 08:59:28;;;;;;;0.40;0.40;;;;;;;;;;5060262;28;20296;-89
2023/06/04 09:01:54;;;;;;;0.50;0.50;;;;;;;;;;5095135;28;20232;-91
2023/06/04 09:04:21;;;;;;;0.50;0.50;;;;;;;;;;5092662;28;20235;-88
2023/06/04 09:06:47;;;;;;;0.40;0.40;;;;;;;;;;5076867;28;20194;-87
2023/06/04 09:09:15;;;;;;;0.40;0.40;;;;;;;;;;5076808;28;20182;-89
2023/06/04 09:11:55;;;;;;;0.50;0.50;;;;;;;;;;5078557;28;20233;-87
2023/06/04 09:14:21;;;;;;;0.50;0.50;;;;;;;;;;5079767;28;20178;-88
2023/06/04 09:16:51;;;;;;;0.40;0.40;;;;;;;;;;5099659;28;20170;-90
2023/06/04 09:19:18;;;;;;;0.40;0.40;;;;;;;;;;5116486;28;20269;-90
2023/06/04 09:21:50;;;;;;;0.43;0.43;;;;;;;;;;5118473;28;20205;-90
2023/06/04 09:24:17;;;;;;;0.30;0.30;;;;;;;;;;5098482;28;20637;-90
2023/06/04 09:26:43;;;;;;;0.47;0.47;;;;;;;;;;5097695;28;20166;-89
2023/06/04 09:29:10;;;;;;;0.30;0.30;;;;;;;;;;5097114;28;20193;-89
2023/06/04 09:31:39;;;;;;;0.30;0.30;;;;;;;;;;5078822;28;20542;-88
2023/06/04 09:34:06;;;;;;;0.30;0.30;;;;;;;;;;5077883;28;20644;-89
2023/06/04 09:36:32;;;;;;;0.30;0.30;;;;;;;;;;5096719;28;20268;-87
2023/06/04 09:38:58;;;;;;;0.53;0.53;;;;;;;;;;5096698;28;20250;-88
2023/06/04 09:41:26;;;;;;;0.40;0.40;;;;;;;;;;5098629;28;20200;-89
2023/06/04 09:43:59;;;;;;;0.40;0.40;;;;;;;;;;5097292;28;20178;-88
2023/06/04 09:46:25;;;;;;;0.60;0.60;;;;;;;;;;5086918;28;20182;-89
2023/06/04 09:48:59;;;;;;;0.37;0.37;;;;;;;;;;5077813;28;20200;-88
2023/06/04 09:51:26;;;;;;;0.40;0.40;;;;;;;;;;5069417;28;20687;-87
2023/06/04 09:53:56;;;;;;;0.40;0.40;;;;;;;;;;5097824;28;20208;-88
2023/06/04 09:56:22;;;;;;;0.40;0.40;;;;;;;;;;5096654;28;20217;-87
2023/06/04 09:58:49;;;;;;;0.60;0.60;;;;;;;;;;5110619;28;20196;-89
2023/06/04 10:01:16;;;;;;;0.50;0.50;;;;;;;;;;5113205;28;20186;-88
2023/06/04 10:03:47;;;;;;;0.30;0.30;;;;;;;;;;5099916;28;20183;-89
2023/06/04 10:06:15;;;;;;;0.30;0.30;;;;;;;;;;5100581;28;20249;-91
2023/06/04 10:08:42;;;;;;;0.40;0.40;;;;;;;;;;5099538;28;20175;-92
2023/06/04 10:11:09;;;;;;;0.40;0.40;;;;;;;;;;5104682;28;20189;-89
2023/06/04 10:13:56;;;;;;;0.40;0.40;;;;;;;;;;5085969;28;20178;-87
2023/06/04 10:16:24;;;;;;;0.50;0.50;;;;;;;;;;5091753;28;20188;-88
2023/06/04 10:18:50;;;;;;;0.40;0.40;;;;;;;;;;5091414;28;20175;-86
2023/06/04 10:21:18;;;;;;;0.40;0.40;;;;;;;;;;5077377;28;20206;-88
2023/06/04 10:23:45;;;;;;;0.30;0.30;;;;;;;;;;5077804;28;20191;-88
2023/06/04 10:26:15;;;;;;;0.53;0.53;;;;;;;;;;5094116;28;20170;-88
2023/06/04 10:28:41;;;;;;;0.40;0.40;;;;;;;;;;5097512;28;20188;-88
2023/06/04 10:31:09;;;;;;;0.40;0.40;;;;;;;;;;5095054;28;20263;-88
2023/06/04 10:33:35;;;;;;;0.30;0.30;;;;;;;;;;5081093;28;20231;-88
2023/06/04 10:36:15;;;;;;;0.30;0.30;;;;;;;;;;5085053;28;20220;-88
2023/06/04 10:38:52;;;;;;;0.30;0.30;;;;;;;;;;5098192;28;20182;-88
2023/06/04 10:41:18;;;;;;;0.20;0.20;;;;;;;;;;5096128;28;20209;-88
2023/06/04 10:43:51;;;;;;;0.40;0.40;;;;;;;;;;5097262;28;20190;-87
2023/06/04 10:46:19;;;;;;;0.30;0.30;;;;;;;;;;5096816;28;20178;-88
2023/06/04 10:48:49;;;;;;;0.30;0.30;;;;;;;;;;5097195;28;20790;-87
2023/06/04 10:51:15;;;;;;;0.20;0.20;;;;;;;;;;5096832;28;20197;-87
2023/06/04 10:53:41;;;;;;;0.20;0.20;;;;;;;;;;5096604;28;20176;-88
2023/06/04 10:56:07;;;;;;;0.37;0.37;;;;;;;;;;5095919;28;20182;-88
2023/06/04 10:58:34;;;;;;;0.40;0.40;;;;;;;;;;5096390;28;20177;-89
2023/06/04 11:01:00;;;;;;;0.40;0.40;;;;;;;;;;5096416;28;20221;-89
2023/06/04 11:03:36;;;;;;;0.20;0.20;;;;;;;;;;5096432;28;20324;-87
2023/06/04 11:06:02;;;;;;;0.30;0.30;;;;;;;;;;5096749;28;20166;-87
2023/06/04 11:08:29;;;;;;;0.50;0.50;;;;;;;;;;5112595;28;20193;-89
2023/06/04 11:10:55;;;;;;;0.50;0.50;;;;;;;;;;5109479;28;20193;-85
2023/06/04 11:13:26;;;;;;;0.30;0.30;;;;;;;;;;5097705;28;20204;-90
2023/06/04 11:15:52;;;;;;;0.50;0.50;;;;;;;;;;5100663;28;20268;-92
2023/06/04 11:18:19;;;;;;;0.40;0.40;;;;;;;;;;5098369;28;20181;-88
2023/06/04 11:20:46;;;;;;;0.40;0.40;;;;;;;;;;5097861;28;20574;-88
2023/06/04 11:23:15;;;;;;;0.27;0.27;;;;;;;;;;5099933;28;20210;-87
2023/06/04 11:25:43;;;;;;;0.40;0.40;;;;;;;;;;5104283;28;20172;-89
2023/06/04 11:28:21;;;;;;;0.30;0.30;;;;;;;;;;5104351;28;20219;-88
2023/06/04 11:31:05;;;;;;;0.40;0.40;;;;;;;;;;5096596;28;20248;-87
2023/06/04 11:33:48;;;;;;;0.40;0.40;;;;;;;;;;5100086;28;20257;-86
2023/06/04 11:36:25;;;;;;;0.40;0.40;;;;;;;;;;5100996;28;20182;-86
2023/06/04 11:38:57;;;;;;;0.40;0.40;;;;;;;;;;5101472;28;20185;-87
2023/06/04 11:41:24;;;;;;;0.50;0.50;;;;;;;;;;5077579;28;20209;-87
2023/06/04 11:43:51;;;;;;;0.50;0.50;;;;;;;;;;5097848;28;20550;-87
2023/06/04 11:46:17;;;;;;;0.40;0.40;;;;;;;;;;5094785;28;20192;-87
2023/06/04 11:48:43;;;;;;;0.43;0.43;;;;;;;;;;5097013;28;20193;-87
2023/06/04 11:51:09;;;;;;;0.40;0.40;;;;;;;;;;5097941;28;20201;-86
2023/06/04 11:53:37;;;;;;;0.30;0.30;;;;;;;;;;5095032;28;20539;-86
2023/06/04 11:56:04;;;;;;;0.40;0.40;;;;;;;;;;5099998;28;20181;-87
2023/06/04 11:58:32;;;;;;;0.50;0.50;;;;;;;;;;5116073;28;20200;-88
2023/06/04 12:00:58;;;;;;;0.50;0.50;;;;;;;;;;5115119;28;20508;-88
2023/06/04 12:03:36;;;;;;;0.43;0.43;;;;;;;;;;5115647;28;20288;-92
2023/06/04 12:06:21;;;;;;;0.50;0.50;;;;;;;;;;5115913;28;20185;-85
2023/06/04 12:08:50;;;;;;;0.50;0.50;;;;;;;;;;5116406;28;20181;-89
2023/06/04 12:11:30;;;;;;;0.47;0.47;;;;;;;;;;5117110;28;20190;-89
2023/06/04 12:13:57;;;;;;;0.30;0.30;;;;;;;;;;5112711;28;20181;-86
2023/06/04 12:16:24;;;;;;;0.50;0.50;;;;;;;;;;5113127;28;20209;-86
2023/06/04 12:18:50;;;;;;;0.50;0.50;;;;;;;;;;5106656;28;20182;-87
2023/06/04 12:21:26;;;;;;;0.40;0.40;;;;;;;;;;5100190;28;20318;-85
2023/06/04 12:24:06;;;;;;;0.40;0.40;;;;;;;;;;5100920;28;20174;-86
2023/06/04 12:26:37;;;;;;;0.40;0.40;;;;;;;;;;5102414;28;20702;-86
2023/06/04 12:29:07;;;;;;;0.50;0.50;;;;;;;;;;5097291;28;20211;-86
2023/06/04 12:31:33;;;;;;;0.50;0.50;;;;;;;;;;5098325;28;20200;-85
2023/06/04 12:34:00;;;;;;;0.40;0.40;;;;;;;;;;5095522;28;20196;-86
2023/06/04 12:36:28;;;;;;;0.33;0.33;;;;;;;;;;5107662;28;20185;-91
2023/06/04 12:38:54;;;;;;;0.37;0.37;;;;;;;;;;5112936;28;20197;-87
2023/06/04 12:41:20;;;;;;;0.40;0.40;;;;;;;;;;5096517;28;20209;-86
2023/06/04 12:43:46;;;;;;;0.50;0.50;;;;;;;;;;5099233;28;20189;-86
2023/06/04 12:46:12;;;;;;;0.50;0.50;;;;;;;;;;5094473;28;20177;-86
2023/06/04 12:48:38;;;;;;;0.40;0.40;;;;;;;;;;5095294;28;20173;-88
2023/06/04 12:51:04;;;;;;;0.30;0.30;;;;;;;;;;5094834;28;20233;-87
2023/06/04 12:53:30;;;;;;;0.40;0.40;;;;;;;;;;5093056;28;20178;-87
2023/06/04 12:55:56;;;;;;;0.40;0.40;;;;;;;;;;5095575;28;20196;-88
2023/06/04 12:58:22;;;;;;;0.47;0.47;;;;;;;;;;5096049;28;20236;-86
2023/06/04 13:00:48;;;;;;;0.50;0.50;;;;;;;;;;5093359;28;20217;-87
2023/06/04 13:03:14;;;;;;;0.47;0.47;;;;;;;;;;5096998;28;20190;-87
2023/06/04 13:05:40;;;;;;;0.40;0.40;;;;;;;;;;5097773;28;20182;-86
2023/06/04 13:08:06;;;;;;;0.50;0.50;;;;;;;;;;5106774;28;20172;-91
2023/06/04 13:10:32;;;;;;;0.40;0.40;;;;;;;;;;5106864;28;20206;-86
2023/06/04 13:12:58;;;;;;;0.40;0.40;;;;;;;;;;5095380;28;20174;-87
2023/06/04 13:15:25;;;;;;;0.37;0.37;;;;;;;;;;5093509;28;20282;-87
2023/06/04 13:17:51;;;;;;;0.30;0.30;;;;;;;;;;5094966;28;20177;-88
2023/06/04 13:20:17;;;;;;;0.40;0.40;;;;;;;;;;5092473;28;20232;-87
2023/06/04 13:22:43;;;;;;;0.40;0.40;;;;;;;;;;5095891;28;20174;-85
2023/06/04 13:25:10;;;;;;;0.40;0.40;;;;;;;;;;5098585;28;20559;-88
2023/06/04 13:27:36;;;;;;;0.43;0.43;;;;;;;;;;5100184;28;20226;-87
2023/06/04 13:30:02;;;;;;;0.40;0.40;;;;;;;;;;5097211;28;20665;-89
2023/06/04 13:32:28;;;;;;;0.30;0.30;;;;;;;;;;5095003;28;20201;-87
2023/06/04 13:34:54;;;;;;;0.40;0.40;;;;;;;;;;5095135;28;20231;-89
2023/06/04 13:37:20;;;;;;;0.40;0.40;;;;;;;;;;5096037;28;20202;-87
2023/06/04 13:39:46;;;;;;;0.30;0.30;;;;;;;;;;5096005;28;20225;-86
2023/06/04 13:42:12;;;;;;;0.30;0.30;;;;;;;;;;5097657;28;20177;-87
2023/06/04 13:44:38;;;;;;;0.30;0.30;;;;;;;;;;5100332;28;20616;-86
2023/06/04 13:47:04;;;;;;;0.30;0.30;;;;;;;;;;5115230;28;20158;-88
2023/06/04 13:49:31;;;;;;;0.50;0.50;;;;;;;;;;5119452;28;20162;-89
2023/06/04 13:51:57;;;;;;;0.40;0.40;;;;;;;;;;5120665;28;20158;-88
2023/06/04 13:54:23;;;;;;;0.60;0.60;;;;;;;;;;5120843;28;20162;-89
2023/06/04 13:56:49;;;;;;;0.40;0.40;;;;;;;;;;5120206;28;20158;-90
2023/06/04 13:59:15;;;;;;;0.43;0.43;;;;;;;;;;5119550;28;20189;-94
2023/06/04 14:01:41;;;;;;;0.40;0.40;;;;;;;;;;5101721;28;20217;-88
2023/06/04 14:04:07;;;;;;;0.40;0.40;;;;;;;;;;5100228;28;20229;-90
2023/06/04 14:06:35;;;;;;;0.50;0.50;;;;;;;;;;5116011;28;20154;-89
2023/06/04 14:09:01;;;;;;;0.37;0.37;;;;;;;;;;5111962;28;20203;-87
2023/06/04 14:11:27;;;;;;;0.40;0.40;;;;;;;;;;5100766;28;20197;-88
2023/06/04 14:13:53;;;;;;;0.40;0.40;;;;;;;;;;5096617;28;20844;-87
2023/06/04 14:16:19;;;;;;;0.40;0.40;;;;;;;;;;5096961;28;20173;-87
2023/06/04 14:18:45;;;;;;;0.40;0.40;;;;;;;;;;5102074;28;20173;-88
2023/06/04 14:21:11;;;;;;;0.40;0.40;;;;;;;;;;5115496;28;20221;-88
2023/06/04 14:23:37;;;;;;;0.37;0.37;;;;;;;;;;5116397;28;20208;-89
2023/06/04 14:26:03;;;;;;;0.50;0.50;;;;;;;;;;5105180;28;20185;-87
2023/06/04 14:28:29;;;;;;;0.30;0.30;;;;;;;;;;5099981;28;20174;-86
2023/06/04 14:30:56;;;;;;;0.40;0.40;;;;;;;;;;5098734;28;20292;-87
2023/06/04 14:33:22;;;;;;;0.40;0.40;;;;;;;;;;5096434;28;20264;-87
2023/06/04 14:35:48;;;;;;;0.50;0.50;;;;;;;;;;5094296;28;20267;-84
2023/06/04 14:38:15;;;;;;;0.33;0.33;;;;;;;;;;5093317;28;20166;-85
2023/06/04 14:40:43;;;;;;;0.37;0.37;;;;;;;;;;5075036;28;20761;-87
2023/06/04 14:43:10;;;;;;;0.30;0.30;;;;;;;;;;5095986;28;20170;-87